Time;durP1;ratioP1;P1;durP2;ratioP2;P2;SDS_P1;SDS_P2;PMS_P1;PMS_P2;Temp;Humidity;BMP_temperature;BMP_pressure;BME280_temperature;BME280_humidity;BME280_pressure;Samples;Min_cycle;Max_cycle;Signal;HPM_P1;HPM_P2
2021/03/06 00:00:24;;;;;;;3.93;2.80;;;1.80;99.90;;;;;;5091925;28;20198;-69
2021/03/06 00:02:51;;;;;;;10.20;2.55;;;1.90;99.90;;;;;;5092736;28;20187;-69
2021/03/06 00:05:17;;;;;;;3.63;2.90;;;1.70;99.90;;;;;;5093714;28;20242;-71
2021/03/06 00:07:43;;;;;;;4.05;3.17;;;1.80;99.90;;;;;;5093273;28;20639;-70
2021/03/06 00:10:12;;;;;;;5.23;3.07;;;1.80;99.90;;;;;;5093410;28;20175;-67
2021/03/06 00:12:46;;;;;;;4.40;2.95;;;1.80;99.90;;;;;;5093023;28;20195;-70
2021/03/06 00:15:14;;;;;;;7.65;2.75;;;1.90;99.90;;;;;;5092282;28;20166;-69
2021/03/06 00:17:40;;;;;;;6.35;3.67;;;1.80;99.90;;;;;;5092950;28;20171;-69
2021/03/06 00:20:07;;;;;;;4.87;2.87;;;1.90;99.90;;;;;;5092983;28;20194;-69
2021/03/06 00:22:33;;;;;;;5.22;2.70;;;1.80;99.90;;;;;;5093004;28;20193;-68
2021/03/06 00:24:59;;;;;;;4.70;2.83;;;1.80;99.90;;;;;;5093267;28;20193;-68
2021/03/06 00:27:25;;;;;;;8.10;2.63;;;1.90;99.90;;;;;;5093212;28;20608;-68
2021/03/06 00:29:51;;;;;;;6.72;3.40;;;1.80;99.90;;;;;;5093046;28;20412;-68
2021/03/06 00:32:17;;;;;;;4.13;2.77;;;1.60;99.90;;;;;;5092862;28;20285;-68
2021/03/06 00:34:43;;;;;;;9.07;3.10;;;1.70;99.90;;;;;;5092876;28;20167;-68
2021/03/06 00:37:09;;;;;;;6.00;2.50;;;1.70;99.90;;;;;;5093075;28;20180;-68
2021/03/06 00:39:34;;;;;;;3.23;2.30;;;1.60;99.90;;;;;;5092726;28;20258;-68
2021/03/06 00:42:00;;;;;;;3.73;2.87;;;1.60;99.90;;;;;;5092926;28;20194;-68
2021/03/06 00:44:25;;;;;;;4.97;2.80;;;1.70;99.90;;;;;;5092960;28;20724;-68
2021/03/06 00:46:51;;;;;;;4.13;2.83;;;1.70;99.90;;;;;;5093045;28;20532;-68
2021/03/06 00:49:19;;;;;;;6.23;3.63;;;1.60;99.90;;;;;;5092943;28;20257;-68
2021/03/06 00:51:45;;;;;;;5.43;2.95;;;1.60;99.90;;;;;;5092836;28;20196;-68
2021/03/06 00:54:11;;;;;;;5.22;2.40;;;1.60;99.90;;;;;;5092652;28;20175;-68
2021/03/06 00:56:36;;;;;;;4.93;2.73;;;1.30;99.90;;;;;;5092640;28;20183;-68
2021/03/06 00:59:02;;;;;;;4.50;2.40;;;1.50;99.90;;;;;;5092596;28;20191;-68
2021/03/06 01:01:28;;;;;;;3.90;2.50;;;1.50;99.90;;;;;;5092563;28;20188;-68
2021/03/06 01:03:54;;;;;;;5.20;2.77;;;1.50;99.90;;;;;;5093105;28;20380;-68
2021/03/06 01:06:19;;;;;;;4.33;2.40;;;1.40;99.90;;;;;;5092849;28;20384;-68
2021/03/06 01:08:45;;;;;;;4.40;2.60;;;1.40;99.90;;;;;;5092376;28;20552;-68
2021/03/06 01:11:10;;;;;;;4.03;2.70;;;1.40;99.90;;;;;;5092491;28;20195;-68
2021/03/06 01:13:36;;;;;;;4.60;3.07;;;1.40;99.90;;;;;;5092831;28;20176;-68
2021/03/06 01:16:02;;;;;;;5.40;2.70;;;1.50;99.90;;;;;;5094832;28;20233;-68
2021/03/06 01:18:27;;;;;;;5.33;2.20;;;1.50;99.90;;;;;;5096381;28;20260;-67
2021/03/06 01:20:53;;;;;;;3.97;2.10;;;1.40;99.90;;;;;;5096019;28;20241;-68
2021/03/06 01:23:20;;;;;;;4.80;2.20;;;1.30;99.90;;;;;;5096125;28;20168;-68
2021/03/06 01:25:45;;;;;;;4.55;2.65;;;0.90;99.90;;;;;;5096097;28;20163;-69
2021/03/06 01:28:11;;;;;;;3.80;2.73;;;1.00;99.90;;;;;;5095932;28;20540;-68
2021/03/06 01:30:36;;;;;;;5.80;2.47;;;1.10;99.90;;;;;;5096167;28;20644;-69
2021/03/06 01:33:03;;;;;;;3.77;2.93;;;0.90;99.90;;;;;;5096096;28;20196;-69
2021/03/06 01:35:28;;;;;;;3.55;2.60;;;0.70;99.90;;;;;;5095879;28;20535;-68
2021/03/06 01:37:54;;;;;;;4.43;3.07;;;0.80;99.90;;;;;;5096038;28;20175;-69
2021/03/06 01:40:31;;;;;;;6.90;2.77;;;1.00;99.90;;;;;;5096398;28;20170;-69
2021/03/06 01:42:57;;;;;;;2.97;1.90;;;0.60;99.90;;;;;;5095981;28;20417;-69
2021/03/06 01:45:23;;;;;;;4.47;2.50;;;0.40;99.90;;;;;;5095788;28;20163;-69
2021/03/06 01:47:50;;;;;;;3.03;2.27;;;0.40;99.90;;;;;;5095515;28;20636;-69
2021/03/06 01:50:26;;;;;;;4.93;2.40;;;0.50;99.90;;;;;;5095525;28;20159;-69
2021/03/06 01:52:52;;;;;;;2.50;2.20;;;0.50;99.90;;;;;;5095452;28;20240;-69
2021/03/06 01:55:22;;;;;;;4.43;2.17;;;0.60;99.90;;;;;;5095398;28;20164;-69
2021/03/06 01:57:48;;;;;;;4.85;2.78;;;0.50;99.90;;;;;;5095152;28;20640;-69
2021/03/06 02:00:14;;;;;;;6.13;3.05;;;0.40;99.90;;;;;;5095297;28;20198;-68
2021/03/06 02:02:42;;;;;;;7.32;2.50;;;0.40;99.90;;;;;;5095183;28;20706;-67
2021/03/06 02:05:08;;;;;;;4.47;2.40;;;0.30;99.90;;;;;;5095613;28;20184;-68
2021/03/06 02:07:33;;;;;;;3.47;2.20;;;0.50;99.90;;;;;;5095045;28;20671;-68
2021/03/06 02:10:04;;;;;;;4.10;2.80;;;0.40;99.90;;;;;;5095318;28;20206;-68
2021/03/06 02:12:46;;;;;;;4.70;2.50;;;0.30;99.90;;;;;;5095244;28;20242;-68
2021/03/06 02:15:24;;;;;;;6.45;2.40;;;0.40;99.90;;;;;;5095009;28;20155;-68
2021/03/06 02:18:03;;;;;;;2.70;2.05;;;0.30;99.90;;;;;;5095139;28;20168;-69
2021/03/06 02:20:43;;;;;;;4.38;2.58;;;0.40;99.90;;;;;;5094901;28;20159;-69
2021/03/06 02:23:16;;;;;;;3.10;1.98;;;0.30;99.90;;;;;;5095071;28;20269;-69
2021/03/06 02:26:20;;;;;;;3.85;2.33;;;0.30;99.90;;;;;;5094839;28;20144;-68
2021/03/06 02:29:02;;;;;;;4.70;2.45;;;0.40;99.90;;;;;;5095615;28;20519;-68
2021/03/06 02:31:31;;;;;;;7.35;2.70;;;0.40;99.90;;;;;;5094645;28;20191;-68
2021/03/06 02:34:02;;;;;;;4.75;2.15;;;0.00;99.90;;;;;;5094693;28;20179;-69
2021/03/06 02:36:31;;;;;;;6.68;2.88;;;0.00;99.90;;;;;;5094773;28;20205;-69
2021/03/06 02:38:58;;;;;;;4.68;2.67;;;0.00;99.90;;;;;;5094437;28;20566;-68
2021/03/06 02:41:26;;;;;;;3.35;2.53;;;0.40;99.90;;;;;;5094667;28;20614;-68
2021/03/06 02:43:52;;;;;;;3.38;2.53;;;0.20;99.90;;;;;;5094437;28;20167;-67
2021/03/06 02:46:22;;;;;;;4.20;3.13;;;0.00;99.90;;;;;;5094214;28;20168;-69
2021/03/06 02:48:48;;;;;;;4.93;2.63;;;-0.10;99.90;;;;;;5094463;28;20597;-69
2021/03/06 02:51:14;;;;;;;5.32;3.03;;;0.10;99.90;;;;;;5094062;28;20192;-69
2021/03/06 02:53:40;;;;;;;3.53;2.90;;;0.10;99.90;;;;;;5094136;28;20179;-69
2021/03/06 02:56:05;;;;;;;6.07;3.00;;;0.20;99.90;;;;;;5094102;28;20208;-69
2021/03/06 02:59:02;;;;;;;12.50;3.50;;;0.10;99.90;;;;;;5094046;28;20512;-69
2021/03/06 03:01:57;;;;;;;6.25;3.45;;;0.00;99.90;;;;;;5060758;28;20559;-69
2021/03/06 03:04:44;;;;;;;4.72;3.20;;;-0.10;99.90;;;;;;5058087;28;20231;-68
2021/03/06 03:07:20;;;;;;;3.72;2.58;;;-0.10;99.90;;;;;;5093909;28;20228;-69
2021/03/06 03:09:50;;;;;;;5.03;3.65;;;-0.10;99.90;;;;;;5094171;28;20182;-69
2021/03/06 03:12:24;;;;;;;3.17;2.22;;;-0.10;99.90;;;;;;5093918;28;20541;-69
2021/03/06 03:15:11;;;;;;;6.70;2.83;;;-0.30;99.90;;;;;;5093831;28;20171;-69
2021/03/06 03:17:43;;;;;;;6.90;2.67;;;-0.20;99.90;;;;;;5094202;28;20191;-69
2021/03/06 03:20:14;;;;;;;7.85;3.08;;;-0.20;99.90;;;;;;5093857;28;20217;-69
2021/03/06 03:22:46;;;;;;;8.23;3.10;;;0.00;99.90;;;;;;5093807;28;20191;-69
2021/03/06 03:25:13;;;;;;;5.35;3.30;;;0.10;99.90;;;;;;5093892;28;20201;-68
2021/03/06 03:27:42;;;;;;;4.28;3.42;;;-0.20;99.90;;;;;;5093577;28;20172;-68
2021/03/06 03:30:12;;;;;;;6.00;3.65;;;-0.10;99.90;;;;;;5093505;28;20175;-69
2021/03/06 03:32:43;;;;;;;4.43;3.55;;;-0.10;99.90;;;;;;5093284;28;20217;-69
2021/03/06 03:35:12;;;;;;;5.63;3.42;;;-0.20;99.90;;;;;;5093513;28;20155;-69
2021/03/06 03:37:39;;;;;;;6.47;3.45;;;-0.40;99.90;;;;;;5092752;28;20663;-68
2021/03/06 03:40:05;;;;;;;8.90;3.45;;;-0.30;99.90;;;;;;5093588;28;20545;-69
2021/03/06 03:42:31;;;;;;;6.45;3.50;;;-0.40;99.90;;;;;;5093293;28;20183;-68
2021/03/06 03:44:58;;;;;;;5.00;3.58;;;-0.40;99.90;;;;;;5093309;28;20175;-68
2021/03/06 03:47:23;;;;;;;6.55;3.55;;;-0.50;99.90;;;;;;5093114;28;20167;-68
2021/03/06 03:49:49;;;;;;;8.50;3.50;;;-0.30;99.90;;;;;;5093479;28;20167;-69
2021/03/06 03:52:15;;;;;;;4.33;3.03;;;-0.30;99.90;;;;;;5093721;28;20404;-68
2021/03/06 03:54:41;;;;;;;7.13;3.22;;;-0.30;99.90;;;;;;5093152;28;20168;-68
2021/03/06 03:57:10;;;;;;;5.93;3.60;;;-0.60;99.90;;;;;;5093110;28;20225;-68
2021/03/06 03:59:36;;;;;;;3.50;3.00;;;-0.60;99.90;;;;;;5093012;28;20183;-68
2021/03/06 04:02:01;;;;;;;7.00;3.50;;;-0.50;99.90;;;;;;5093050;28;20198;-69
2021/03/06 04:04:27;;;;;;;4.40;2.40;;;-0.40;99.90;;;;;;5093071;28;20861;-69
2021/03/06 04:06:53;;;;;;;2.40;2.20;;;-0.50;99.90;;;;;;5092798;28;20649;-69
2021/03/06 04:09:19;;;;;;;4.05;2.78;;;-0.40;99.90;;;;;;5093349;28;20160;-69
2021/03/06 04:11:45;;;;;;;7.17;2.93;;;-0.70;99.90;;;;;;5093141;28;20211;-69
2021/03/06 04:14:10;;;;;;;5.43;3.13;;;-0.90;99.90;;;;;;5093036;28;20216;-69
2021/03/06 04:16:36;;;;;;;6.37;2.80;;;-0.80;99.90;;;;;;5093021;28;20172;-68
2021/03/06 04:19:02;;;;;;;7.73;3.30;;;-0.90;99.90;;;;;;5092801;28;20199;-68
2021/03/06 04:21:28;;;;;;;5.93;3.08;;;-0.70;1.00;;;;;;5093037;28;20202;-69
2021/03/06 04:23:53;;;;;;;5.10;3.40;;;-0.70;99.90;;;;;;5092929;28;20167;-69
2021/03/06 04:26:19;;;;;;;8.50;3.73;;;-0.70;99.90;;;;;;5093066;28;20246;-69
2021/03/06 04:28:45;;;;;;;4.70;3.43;;;-0.80;99.90;;;;;;5092910;28;20163;-68
2021/03/06 04:31:11;;;;;;;4.20;2.75;;;-0.80;99.90;;;;;;5092701;28;20426;-69
2021/03/06 04:33:36;;;;;;;8.70;2.90;;;-0.80;99.90;;;;;;5091513;28;20175;-68
2021/03/06 04:36:02;;;;;;;4.27;3.87;;;-0.80;99.90;;;;;;5092797;28;20556;-69
2021/03/06 04:38:28;;;;;;;5.60;3.60;;;-0.80;99.90;;;;;;5092936;28;20686;-68
2021/03/06 04:40:53;;;;;;;5.00;2.73;;;-0.60;1.00;;;;;;5092613;28;20436;-69
2021/03/06 04:43:19;;;;;;;8.67;3.53;;;-0.30;99.90;;;;;;5092954;28;20186;-69
2021/03/06 04:45:44;;;;;;;5.07;2.57;;;-0.30;99.90;;;;;;5092675;28;20167;-67
2021/03/06 04:48:10;;;;;;;3.70;2.70;;;-0.30;99.90;;;;;;5093939;28;20175;-68
2021/03/06 04:50:36;;;;;;;4.93;3.20;;;-0.50;99.90;;;;;;5096968;28;20284;-69
2021/03/06 04:53:01;;;;;;;5.33;3.03;;;-0.70;99.90;;;;;;5096478;28;20703;-69
2021/03/06 04:55:27;;;;;;;4.33;2.30;;;-0.70;1.00;;;;;;5096582;28;20536;-68
2021/03/06 04:57:52;;;;;;;5.10;3.30;;;-0.80;1.00;;;;;;5096475;28;20339;-68
2021/03/06 05:00:18;;;;;;;7.07;2.70;;;-0.70;1.00;;;;;;5096418;28;20524;-69
2021/03/06 05:02:44;;;;;;;5.37;2.83;;;-0.40;99.90;;;;;;5096608;28;20303;-69
2021/03/06 05:05:10;;;;;;;5.57;3.43;;;-0.50;99.90;;;;;;5096621;28;20171;-67
2021/03/06 05:07:36;;;;;;;7.93;2.80;;;-0.80;99.90;;;;;;5096432;28;20504;-69
2021/03/06 05:10:03;;;;;;;3.90;2.37;;;-0.90;1.00;;;;;;5096597;28;20597;-69
2021/03/06 05:12:28;;;;;;;5.03;3.30;;;-1.00;1.00;;;;;;5096043;28;20421;-68
2021/03/06 05:14:54;;;;;;;6.40;3.70;;;-1.00;1.00;;;;;;5096257;28;20255;-69
2021/03/06 05:17:19;;;;;;;4.60;2.70;;;-0.80;1.00;;;;;;5096205;28;20168;-68
2021/03/06 05:19:45;;;;;;;3.77;2.60;;;-0.80;99.90;;;;;;5096004;28;20559;-68
2021/03/06 05:22:10;;;;;;;5.73;2.97;;;-0.80;99.90;;;;;;5095924;28;20552;-68
2021/03/06 05:24:36;;;;;;;5.27;3.30;;;-0.90;99.90;;;;;;5096184;28;20175;-69
2021/03/06 05:27:01;;;;;;;4.70;2.90;;;-1.10;99.90;;;;;;5096012;28;20190;-68
2021/03/06 05:29:32;;;;;;;5.03;3.13;;;-1.00;1.00;;;;;;5095948;28;20175;-68
2021/03/06 05:31:58;;;;;;;11.63;3.30;;;-0.80;1.00;;;;;;5095748;28;20195;-68
2021/03/06 05:34:24;;;;;;;7.25;3.13;;;-0.70;1.00;;;;;;5095849;28;20171;-69
2021/03/06 05:36:50;;;;;;;6.93;3.60;;;-0.80;99.90;;;;;;5096135;28;20174;-68
2021/03/06 05:39:17;;;;;;;5.15;2.70;;;-1.00;99.90;;;;;;5095909;28;20199;-69
2021/03/06 05:41:43;;;;;;;5.78;2.85;;;-1.10;1.00;;;;;;5095873;28;20195;-68
2021/03/06 05:44:10;;;;;;;5.83;3.60;;;-0.90;1.00;;;;;;5095610;28;20159;-68
2021/03/06 05:46:37;;;;;;;5.15;2.70;;;-0.80;1.00;;;;;;5095815;28;20675;-69
2021/03/06 05:49:03;;;;;;;5.07;3.30;;;-0.70;99.90;;;;;;5095825;28;20551;-68
2021/03/06 05:51:33;;;;;;;3.53;2.95;;;-0.70;99.90;;;;;;5095375;28;20191;-68
2021/03/06 05:54:00;;;;;;;7.68;2.80;;;-0.90;1.00;;;;;;5095705;28;20184;-69
2021/03/06 05:56:25;;;;;;;7.45;4.00;;;-0.90;1.00;;;;;;5095712;28;20506;-69
2021/03/06 05:58:52;;;;;;;7.33;3.13;;;-0.90;1.00;;;;;;5095271;28;20206;-68
2021/03/06 06:01:18;;;;;;;11.27;4.25;;;-1.10;1.00;;;;;;5094539;28;20194;-69
2021/03/06 06:03:44;;;;;;;5.88;2.90;;;-1.20;1.00;;;;;;5096277;28;20171;-68
2021/03/06 06:06:09;;;;;;;3.93;3.00;;;-1.10;1.00;;;;;;5095154;28;20168;-68
2021/03/06 06:08:36;;;;;;;6.90;3.17;;;-1.10;1.00;;;;;;5095074;28;20180;-68
2021/03/06 06:11:02;;;;;;;5.15;3.00;;;-1.00;1.00;;;;;;5095315;28;20277;-68
2021/03/06 06:13:28;;;;;;;3.67;3.20;;;-0.90;1.00;;;;;;5095093;28;20257;-68
2021/03/06 06:15:55;;;;;;;5.03;2.80;;;-0.80;1.00;;;;;;5094976;28;20224;-67
2021/03/06 06:18:21;;;;;;;8.10;3.60;;;-1.20;1.00;;;;;;5095072;28;20199;-68
2021/03/06 06:20:46;;;;;;;5.40;3.70;;;-1.30;1.00;;;;;;5094781;28;20643;-67
2021/03/06 06:23:17;;;;;;;6.20;3.00;;;-1.10;1.00;;;;;;5094719;28;20239;-68
2021/03/06 06:25:46;;;;;;;6.00;3.30;;;-0.90;1.00;;;;;;5094900;28;20167;-68
2021/03/06 06:28:12;;;;;;;4.60;2.80;;;-0.60;1.00;;;;;;5094937;28;20175;-68
2021/03/06 06:30:38;;;;;;;5.80;2.73;;;-0.70;1.00;;;;;;5094580;28;20529;-68
2021/03/06 06:33:03;;;;;;;10.93;4.13;;;-0.80;1.00;;;;;;5094446;28;20417;-68
2021/03/06 06:35:39;;;;;;;6.57;5.00;;;-1.00;1.00;;;;;;5094571;28;20182;-68
2021/03/06 06:38:06;;;;;;;6.28;2.25;;;-1.00;1.00;;;;;;5094403;28;20632;-68
2021/03/06 06:40:34;;;;;;;3.85;3.10;;;-0.70;1.00;;;;;;5094692;28;20178;-68
2021/03/06 06:43:00;;;;;;;5.85;3.10;;;-0.60;99.90;;;;;;5094199;28;20195;-68
2021/03/06 06:45:36;;;;;;;3.88;2.90;;;-0.70;99.90;;;;;;5094065;28;20186;-68
2021/03/06 06:48:09;;;;;;;4.32;2.97;;;-0.70;1.00;;;;;;5094698;28;20168;-68
2021/03/06 06:50:35;;;;;;;6.88;3.08;;;-0.90;1.00;;;;;;5094362;28;20187;-68
2021/03/06 06:53:00;;;;;;;3.87;3.00;;;-0.80;1.00;;;;;;5093969;28;20688;-69
2021/03/06 06:55:43;;;;;;;6.27;2.90;;;-0.80;1.00;;;;;;5094296;28;20171;-69
2021/03/06 06:58:09;;;;;;;6.30;2.30;;;-0.70;1.00;;;;;;5094285;28;20199;-69
2021/03/06 07:00:35;;;;;;;4.10;2.47;;;-0.70;1.00;;;;;;5094017;28;20553;-68
2021/03/06 07:03:05;;;;;;;3.35;2.67;;;-0.70;1.00;;;;;;5094036;28;20270;-69
2021/03/06 07:05:40;;;;;;;3.50;2.60;;;-0.40;1.00;;;;;;5094250;28;20167;-68
2021/03/06 07:08:21;;;;;;;4.43;3.17;;;-0.50;1.00;;;;;;5093807;28;20186;-68
2021/03/06 07:10:46;;;;;;;5.20;2.65;;;-0.40;1.00;;;;;;5093509;28;20644;-68
2021/03/06 07:13:14;;;;;;;4.33;2.57;;;-0.30;1.00;;;;;;5093293;28;20191;-69
2021/03/06 07:15:40;;;;;;;4.03;3.15;;;-0.10;1.00;;;;;;5093868;28;20254;-68
2021/03/06 07:18:08;;;;;;;4.63;3.33;;;0.20;1.00;;;;;;5093704;28;20171;-69
2021/03/06 07:20:38;;;;;;;10.80;3.38;;;0.20;99.90;;;;;;5093959;28;20602;-69
2021/03/06 07:23:26;;;;;;;3.90;2.83;;;0.30;99.90;;;;;;5093734;28;20215;-67
2021/03/06 07:25:53;;;;;;;6.10;3.20;;;0.60;99.90;;;;;;5093837;28;20172;-67
2021/03/06 07:28:19;;;;;;;7.72;3.50;;;0.70;99.90;;;;;;5093653;28;20167;-68
2021/03/06 07:30:45;;;;;;;8.63;4.25;;;0.70;99.90;;;;;;5093533;28;20232;-67
2021/03/06 07:33:13;;;;;;;6.07;3.85;;;0.50;99.90;;;;;;5093488;28;20675;-68
2021/03/06 07:35:41;;;;;;;9.57;6.57;;;0.40;99.90;;;;;;5093742;28;20195;-68
2021/03/06 07:38:14;;;;;;;9.25;5.65;;;0.70;99.90;;;;;;5093348;28;20203;-68
2021/03/06 07:40:42;;;;;;;11.30;7.25;;;0.80;99.90;;;;;;5093798;28;20156;-68
2021/03/06 07:43:13;;;;;;;14.63;7.90;;;0.90;99.90;;;;;;5093266;28;20197;-68
2021/03/06 07:45:43;;;;;;;12.63;8.10;;;1.00;99.90;;;;;;5093292;28;20190;-68
2021/03/06 07:48:13;;;;;;;15.40;8.27;;;1.30;99.90;;;;;;5093229;28;20675;-68
2021/03/06 07:50:42;;;;;;;15.57;7.82;;;1.50;99.90;;;;;;5093428;28;20156;-68
2021/03/06 07:53:09;;;;;;;11.82;7.30;;;1.60;99.90;;;;;;5093485;28;20219;-67
2021/03/06 07:55:36;;;;;;;10.60;6.45;;;1.70;99.90;;;;;;5093401;28;20178;-69
2021/03/06 07:58:09;;;;;;;11.60;6.53;;;2.00;99.90;;;;;;5093086;28;20171;-68
2021/03/06 08:00:49;;;;;;;10.68;5.68;;;2.10;99.90;;;;;;5093263;28;20289;-68
2021/03/06 08:03:30;;;;;;;11.75;5.38;;;2.10;99.90;;;;;;5093404;28;20155;-69
2021/03/06 08:05:57;;;;;;;9.85;4.50;;;2.50;99.90;;;;;;5092982;28;20159;-68
2021/03/06 08:08:35;;;;;;;8.02;5.40;;;2.70;99.90;;;;;;5092838;28;20175;-67
2021/03/06 08:11:12;;;;;;;5.50;4.43;;;2.90;99.90;;;;;;5092833;28;20179;-68
2021/03/06 08:13:40;;;;;;;7.70;4.63;;;2.80;99.90;;;;;;5093061;28;20163;-68
2021/03/06 08:16:24;;;;;;;6.55;4.78;;;2.70;99.90;;;;;;5093264;28;20247;-68
2021/03/06 08:18:54;;;;;;;7.07;3.75;;;2.90;99.90;;;;;;5091404;28;20195;-68
2021/03/06 08:21:34;;;;;;;7.53;4.70;;;3.20;99.90;;;;;;5093061;28;20187;-69
2021/03/06 08:24:21;;;;;;;6.68;4.15;;;3.10;99.90;;;;;;5098249;28;20158;-68
2021/03/06 08:26:52;;;;;;;5.32;4.63;;;3.30;99.90;;;;;;5099727;28;20517;-68
2021/03/06 08:29:24;;;;;;;11.13;4.38;;;3.80;99.90;;;;;;5098314;28;20191;-69
2021/03/06 08:32:05;;;;;;;5.90;4.10;;;4.00;99.90;;;;;;5099662;28;20187;-68
2021/03/06 08:34:34;;;;;;;5.65;3.75;;;4.10;99.90;;;;;;5099852;28;20170;-69
2021/03/06 08:37:15;;;;;;;7.07;4.10;;;4.20;99.90;;;;;;5099476;28;20167;-68
2021/03/06 08:39:49;;;;;;;5.68;4.63;;;4.00;99.90;;;;;;5099643;28;20191;-68
2021/03/06 08:42:16;;;;;;;7.25;3.97;;;4.20;99.90;;;;;;5099858;28;20244;-68
2021/03/06 08:44:42;;;;;;;9.82;4.82;;;4.60;99.90;;;;;;5099545;28;20155;-69
2021/03/06 08:47:08;;;;;;;5.63;3.60;;;4.70;99.90;;;;;;5099312;28;20202;-68
2021/03/06 08:49:35;;;;;;;6.70;3.58;;;5.00;99.90;;;;;;5099108;28;20388;-68
2021/03/06 08:52:00;;;;;;;7.13;3.55;;;5.10;99.90;;;;;;5099461;28;20198;-68
2021/03/06 08:54:26;;;;;;;6.80;4.50;;;5.10;99.90;;;;;;5099261;28;20644;-69
2021/03/06 08:56:52;;;;;;;2.47;1.87;;;5.20;99.90;;;;;;5099167;28;20509;-67
2021/03/06 08:59:19;;;;;;;4.77;2.60;;;8.40;1.00;;;;;;5099148;28;20191;-67
2021/03/06 09:01:46;;;;;;;3.97;3.42;;;10.00;99.90;;;;;;5099351;28;20400;-67
2021/03/06 09:04:12;;;;;;;7.85;3.50;;;9.90;99.90;;;;;;5099379;28;20544;-67
2021/03/06 09:06:39;;;;;;;5.90;3.70;;;9.80;99.90;;;;;;5099015;28;20167;-67
2021/03/06 09:09:09;;;;;;;5.45;3.78;;;9.70;99.90;;;;;;5098959;28;20398;-67
2021/03/06 09:11:57;;;;;;;3.80;3.20;;;9.50;99.90;;;;;;5099287;28;20195;-67
2021/03/06 09:14:24;;;;;;;6.53;4.13;;;10.60;99.90;;;;;;5098956;28;20173;-68
2021/03/06 09:16:50;;;;;;;5.60;3.50;;;6.80;99.90;;;;;;5099269;28;20643;-69
2021/03/06 09:19:27;;;;;;;6.97;3.83;;;6.70;99.90;;;;;;5099813;28;20686;-68
2021/03/06 09:22:07;;;;;;;7.10;3.70;;;6.50;99.90;;;;;;5099152;28;20248;-68
2021/03/06 09:24:47;;;;;;;5.78;4.13;;;7.60;99.90;;;;;;5099219;28;20154;-68
2021/03/06 09:27:14;;;;;;;5.47;3.78;;;7.40;99.90;;;;;;5099115;28;20189;-68
2021/03/06 09:29:41;;;;;;;5.68;4.15;;;7.00;99.90;;;;;;5098813;28;20195;-68
2021/03/06 09:32:07;;;;;;;4.88;3.80;;;7.10;99.90;;;;;;5098926;28;20248;-66
2021/03/06 09:34:33;;;;;;;9.02;5.78;;;7.10;99.90;;;;;;5096467;28;20540;-67
2021/03/06 09:36:59;;;;;;;6.60;4.30;;;7.10;99.90;;;;;;5095713;28;20217;-68
2021/03/06 09:39:25;;;;;;;5.10;3.63;;;7.10;99.90;;;;;;5095712;28;20452;-68
2021/03/06 09:41:52;;;;;;;9.93;3.92;;;7.20;99.90;;;;;;5095711;28;20191;-68
2021/03/06 09:44:18;;;;;;;7.60;3.30;;;7.30;99.90;;;;;;5095238;28;20168;-68
2021/03/06 09:46:45;;;;;;;6.70;3.40;;;7.20;99.90;;;;;;5095290;28;20168;-68
2021/03/06 09:49:15;;;;;;;5.18;3.70;;;7.60;99.90;;;;;;5095531;28;20254;-68
2021/03/06 09:51:46;;;;;;;10.40;3.50;;;7.70;99.90;;;;;;5095611;28;20187;-68
2021/03/06 09:54:15;;;;;;;7.18;2.97;;;7.80;99.90;;;;;;5095478;28;20269;-68
2021/03/06 09:57:01;;;;;;;4.10;3.08;;;7.90;99.90;;;;;;5096397;28;20191;-68
2021/03/06 09:59:29;;;;;;;6.88;4.68;;;8.10;99.90;;;;;;5095770;28;20722;-69
2021/03/06 10:02:02;;;;;;;6.78;4.97;;;7.90;99.90;;;;;;5095240;28;20193;-68
2021/03/06 10:04:27;;;;;;;6.78;4.65;;;7.40;99.90;;;;;;5094952;28;20517;-67
2021/03/06 10:06:54;;;;;;;7.07;5.30;;;7.50;99.90;;;;;;5094995;28;20186;-67
2021/03/06 10:09:22;;;;;;;8.45;6.38;;;7.90;99.90;;;;;;5095428;28;20250;-67
2021/03/06 10:11:52;;;;;;;4.80;3.80;;;8.00;99.90;;;;;;5095430;28;20188;-67
2021/03/06 10:14:21;;;;;;;7.22;4.10;;;7.00;99.90;;;;;;5095176;28;20149;-68
2021/03/06 10:16:56;;;;;;;6.72;3.70;;;7.30;99.90;;;;;;5093477;28;20184;-67
2021/03/06 10:19:25;;;;;;;5.32;3.72;;;7.80;99.90;;;;;;5095117;28;20237;-68
2021/03/06 10:22:01;;;;;;;5.18;3.70;;;7.60;99.90;;;;;;5094724;28;20187;-67
2021/03/06 10:24:27;;;;;;;5.38;3.55;;;7.60;99.90;;;;;;5094575;28;20639;-68
2021/03/06 10:27:01;;;;;;;7.70;3.97;;;7.70;99.90;;;;;;5094497;28;20175;-68
2021/03/06 10:29:29;;;;;;;5.05;2.65;;;8.30;99.90;;;;;;5094552;28;20155;-70
2021/03/06 10:32:04;;;;;;;8.77;3.10;;;9.80;99.90;;;;;;5094277;28;20191;-68
2021/03/06 10:34:32;;;;;;;3.58;2.83;;;9.40;99.90;;;;;;5094044;28;20616;-68
2021/03/06 10:37:10;;;;;;;6.35;2.50;;;9.30;99.90;;;;;;5094535;28;20198;-68
2021/03/06 10:39:56;;;;;;;3.88;2.50;;;9.00;99.90;;;;;;5094524;28;20568;-68
2021/03/06 10:42:25;;;;;;;5.63;2.80;;;8.70;99.90;;;;;;5095066;28;20549;-67
2021/03/06 10:44:51;;;;;;;4.18;2.70;;;9.10;99.90;;;;;;5094334;28;20167;-67
2021/03/06 10:47:16;;;;;;;4.27;3.03;;;9.10;99.90;;;;;;5094306;28;20163;-68
2021/03/06 10:49:45;;;;;;;8.20;3.70;;;9.40;99.90;;;;;;5094703;28;20467;-68
2021/03/06 10:52:29;;;;;;;5.32;3.55;;;9.30;99.90;;;;;;5094624;28;20191;-66
2021/03/06 10:54:57;;;;;;;6.30;3.70;;;9.30;99.90;;;;;;5094487;28;20158;-67
2021/03/06 10:57:24;;;;;;;5.47;3.33;;;10.10;99.90;;;;;;5094521;28;20173;-68
2021/03/06 10:59:49;;;;;;;10.73;3.23;;;10.00;99.90;;;;;;5094449;28;20482;-68
2021/03/06 11:02:32;;;;;;;3.90;2.73;;;10.20;99.90;;;;;;5094153;28;20422;-67
2021/03/06 11:05:17;;;;;;;4.57;3.40;;;10.50;99.90;;;;;;5094764;28;20204;-68
2021/03/06 11:07:43;;;;;;;6.30;3.67;;;10.20;99.90;;;;;;5094037;28;20478;-68
2021/03/06 11:10:09;;;;;;;6.90;3.20;;;10.30;99.90;;;;;;5094255;28;20417;-67
2021/03/06 11:12:35;;;;;;;7.83;3.63;;;10.20;99.90;;;;;;5093649;28;20221;-68
2021/03/06 11:15:11;;;;;;;5.17;3.37;;;9.90;99.90;;;;;;5094349;28;20409;-68
2021/03/06 11:17:38;;;;;;;5.50;3.10;;;10.20;99.90;;;;;;5094011;28;20613;-67
2021/03/06 11:20:06;;;;;;;5.53;3.43;;;10.10;99.90;;;;;;5093742;28;20495;-67
2021/03/06 11:22:31;;;;;;;16.10;4.53;;;10.40;99.90;;;;;;5093735;28;20421;-68
2021/03/06 11:24:57;;;;;;;4.87;3.10;;;11.00;99.90;;;;;;5093408;28;20808;-67
2021/03/06 11:27:22;;;;;;;4.60;3.87;;;11.50;99.90;;;;;;5093314;28;20510;-68
2021/03/06 11:29:48;;;;;;;6.27;4.37;;;11.30;99.90;;;;;;5093686;28;20254;-68
2021/03/06 11:32:13;;;;;;;3.97;3.60;;;11.50;99.90;;;;;;5093360;28;20273;-68
2021/03/06 11:34:39;;;;;;;5.70;3.17;;;11.70;99.90;;;;;;5093461;28;20174;-67
2021/03/06 11:37:05;;;;;;;7.50;4.70;;;12.30;99.90;;;;;;5093341;28;20174;-68
2021/03/06 11:39:30;;;;;;;6.43;4.10;;;11.50;99.90;;;;;;5093409;28;20270;-68
2021/03/06 11:41:56;;;;;;;4.50;3.50;;;10.80;99.90;;;;;;5093733;28;20195;-68
2021/03/06 11:44:21;;;;;;;5.40;3.60;;;10.70;99.90;;;;;;5093530;28;20309;-68
2021/03/06 11:46:47;;;;;;;10.70;3.70;;;10.30;99.90;;;;;;5093363;28;20657;-68
2021/03/06 11:49:12;;;;;;;4.87;3.67;;;10.90;99.90;;;;;;5093328;28;20170;-68
2021/03/06 11:51:38;;;;;;;4.10;3.70;;;11.40;99.90;;;;;;5093190;28;20245;-67
2021/03/06 11:54:04;;;;;;;6.23;3.73;;;11.20;99.90;;;;;;5093479;28;20175;-67
2021/03/06 11:56:29;;;;;;;4.60;3.73;;;11.00;99.90;;;;;;5093016;28;20189;-68
2021/03/06 11:58:55;;;;;;;5.23;4.03;;;11.00;99.90;;;;;;5092777;28;20450;-68
2021/03/06 12:01:21;;;;;;;6.17;4.07;;;11.40;99.90;;;;;;5092951;28;20209;-69
2021/03/06 12:03:46;;;;;;;8.37;4.43;;;11.90;99.90;;;;;;5092966;28;20711;-68
2021/03/06 12:06:12;;;;;;;6.07;3.43;;;12.40;99.90;;;;;;5092678;28;20228;-68
2021/03/06 12:08:37;;;;;;;4.80;3.47;;;12.30;99.90;;;;;;5092747;28;20583;-68
2021/03/06 12:11:03;;;;;;;5.33;4.00;;;12.50;99.90;;;;;;5092697;28;20970;-67
2021/03/06 12:13:30;;;;;;;6.07;4.03;;;12.80;99.90;;;;;;5092526;28;20175;-67
2021/03/06 12:15:56;;;;;;;6.00;4.10;;;13.30;99.90;;;;;;5092925;28;20541;-68
2021/03/06 12:18:22;;;;;;;5.13;3.70;;;13.20;99.90;;;;;;5092450;28;20916;-68
2021/03/06 12:20:48;;;;;;;8.13;3.37;;;13.40;99.90;;;;;;5092700;28;20402;-68
2021/03/06 12:23:13;;;;;;;4.53;3.57;;;13.00;99.90;;;;;;5092613;28;20177;-68
2021/03/06 12:25:39;;;;;;;5.10;4.03;;;12.60;99.90;;;;;;5092947;28;20401;-68
2021/03/06 12:28:04;;;;;;;5.80;4.07;;;13.20;99.90;;;;;;5092553;28;20175;-68
2021/03/06 12:30:30;;;;;;;5.17;4.03;;;13.20;99.90;;;;;;5092768;28;20172;-67
2021/03/06 12:32:56;;;;;;;4.73;4.23;;;12.70;99.90;;;;;;5092530;28;20602;-69
2021/03/06 12:35:22;;;;;;;3.83;2.83;;;12.40;99.90;;;;;;5092760;28;20600;-68
2021/03/06 12:37:47;;;;;;;3.37;3.00;;;12.60;99.90;;;;;;5092780;28;20178;-69
2021/03/06 12:40:15;;;;;;;7.60;2.90;;;12.20;99.90;;;;;;5092756;28;20532;-68
2021/03/06 12:42:41;;;;;;;5.10;3.60;;;13.20;99.90;;;;;;5092672;28;20190;-67
2021/03/06 12:45:09;;;;;;;6.50;3.70;;;13.60;99.90;;;;;;5092751;28;20820;-69
2021/03/06 12:47:34;;;;;;;3.83;3.23;;;12.40;99.90;;;;;;5092719;28;20443;-68
2021/03/06 12:50:00;;;;;;;7.83;3.60;;;13.40;99.90;;;;;;5092766;28;20437;-68
2021/03/06 12:52:26;;;;;;;4.63;3.30;;;14.20;99.90;;;;;;5092438;28;20217;-68
2021/03/06 12:54:51;;;;;;;5.53;3.63;;;14.10;99.90;;;;;;5092595;28;20774;-68
2021/03/06 12:57:17;;;;;;;4.40;3.63;;;14.80;99.90;;;;;;5092481;28;20164;-67
2021/03/06 12:59:42;;;;;;;7.00;4.73;;;15.30;99.90;;;;;;5092765;28;20189;-68